Time;durP1;ratioP1;P1;durP2;ratioP2;P2;SDS_P1;SDS_P2;PMS_P1;PMS_P2;Temp;Humidity;BMP_temperature;BMP_pressure;BME280_temperature;BME280_humidity;BME280_pressure;Samples;Min_cycle;Max_cycle;Signal;HPM_P1;HPM_P2
2022/04/16 00:01:36;;;;;;;6.97;2.80;;;20.60;46.30;;;;;;1880005;75;21112;-61
2022/04/16 00:04:03;;;;;;;5.33;3.67;;;20.60;46.30;;;;;;1869886;76;21096;-59
2022/04/16 00:06:31;;;;;;;6.58;3.25;;;20.60;46.30;;;;;;1880073;75;21087;-60
2022/04/16 00:08:58;;;;;;;6.08;3.08;;;20.70;46.30;;;;;;1893074;76;21180;-59
2022/04/16 00:11:25;;;;;;;5.42;2.85;;;20.70;46.20;;;;;;1880979;76;21095;-59
2022/04/16 00:13:53;;;;;;;8.18;3.08;;;20.60;46.20;;;;;;1870646;76;21208;-59
2022/04/16 00:16:20;;;;;;;4.15;2.65;;;20.60;46.30;;;;;;1870705;76;21124;-59
2022/04/16 00:18:48;;;;;;;2.85;2.47;;;20.60;46.20;;;;;;1869900;76;21084;-62
2022/04/16 00:21:15;;;;;;;3.17;2.33;;;20.60;46.20;;;;;;1864854;75;21128;-60
2022/04/16 00:23:42;;;;;;;5.40;2.37;;;20.60;46.80;;;;;;1900909;75;21117;-61
2022/04/16 00:26:14;;;;;;;7.65;2.70;;;20.60;46.10;;;;;;1892121;75;21125;-59
2022/04/16 00:28:41;;;;;;;5.47;2.35;;;20.60;46.10;;;;;;1869398;75;21125;-59
2022/04/16 00:31:09;;;;;;;6.97;3.00;;;20.60;46.10;;;;;;1870880;76;21096;-59
2022/04/16 00:33:37;;;;;;;9.10;2.40;;;20.60;46.20;;;;;;1870445;76;21221;-59
2022/04/16 00:36:05;;;;;;;4.90;2.98;;;20.60;46.10;;;;;;1870422;76;21068;-61
2022/04/16 00:38:32;;;;;;;6.33;2.70;;;20.60;46.00;;;;;;1870613;76;21128;-59
2022/04/16 00:41:02;;;;;;;3.35;2.50;;;20.60;46.00;;;;;;1870033;75;21196;-61
2022/04/16 00:43:29;;;;;;;6.85;3.50;;;20.60;45.90;;;;;;1869968;76;21193;-62
2022/04/16 00:45:57;;;;;;;4.97;2.52;;;20.60;45.90;;;;;;1870300;75;21088;-59
2022/04/16 00:48:24;;;;;;;4.90;2.83;;;20.60;45.80;;;;;;1870779;76;21167;-64
2022/04/16 00:50:53;;;;;;;7.85;2.87;;;20.60;45.90;;;;;;1871128;76;21181;-58
2022/04/16 00:53:20;;;;;;;7.70;2.87;;;20.60;45.90;;;;;;1869479;76;21151;-59
2022/04/16 00:55:48;;;;;;;6.87;2.98;;;20.60;45.90;;;;;;1870610;75;21116;-59
2022/04/16 00:58:15;;;;;;;4.35;2.70;;;20.60;46.20;;;;;;1870913;76;21105;-59
2022/04/16 01:00:42;;;;;;;3.02;2.15;;;20.60;45.80;;;;;;1895867;73;21174;-61
2022/04/16 01:03:10;;;;;;;6.60;3.05;;;20.60;45.60;;;;;;1903457;74;21215;-59
2022/04/16 01:05:37;;;;;;;6.12;2.37;;;20.60;45.70;;;;;;1903681;75;21113;-59
2022/04/16 01:08:05;;;;;;;3.85;2.12;;;20.50;45.70;;;;;;1903931;75;22089;-60
2022/04/16 01:10:33;;;;;;;9.73;3.05;;;20.50;45.60;;;;;;1904405;75;21105;-59
2022/04/16 01:13:02;;;;;;;3.12;2.35;;;20.50;46.20;;;;;;1903815;75;21133;-60
2022/04/16 01:15:30;;;;;;;5.05;2.77;;;20.50;45.70;;;;;;1897595;74;21153;-60
2022/04/16 01:17:59;;;;;;;4.83;2.70;;;20.50;45.70;;;;;;1904018;75;21139;-60
2022/04/16 01:20:26;;;;;;;5.03;2.95;;;20.50;45.60;;;;;;1904104;75;21139;-60
2022/04/16 01:22:54;;;;;;;5.10;2.98;;;20.50;45.70;;;;;;1903921;75;21139;-58
2022/04/16 01:25:24;;;;;;;3.47;2.65;;;20.50;46.10;;;;;;1903734;75;22210;-59
2022/04/16 01:27:52;;;;;;;6.25;2.72;;;20.50;45.60;;;;;;1904307;75;21672;-65
2022/04/16 01:30:21;;;;;;;3.83;2.40;;;20.50;45.70;;;;;;1903432;75;21204;-56
2022/04/16 01:32:52;;;;;;;4.65;2.37;;;20.60;45.50;;;;;;1903832;75;21083;-59
2022/04/16 01:35:17;;;;;;;4.30;2.45;;;20.50;45.50;;;;;;1903955;75;21179;-61
2022/04/16 01:37:44;;;;;;;4.85;2.60;;;20.50;45.60;;;;;;1904375;75;21099;-58
2022/04/16 01:40:14;;;;;;;5.40;2.58;;;20.50;45.70;;;;;;1899587;74;21162;-59
2022/04/16 01:42:43;;;;;;;3.30;2.85;;;20.50;45.70;;;;;;1904301;75;21148;-59
2022/04/16 01:45:11;;;;;;;3.87;2.45;;;20.50;45.70;;;;;;1904685;75;21123;-58
2022/04/16 01:47:39;;;;;;;3.65;2.58;;;20.50;45.60;;;;;;1904413;75;21798;-61
2022/04/16 01:50:08;;;;;;;3.12;2.47;;;20.50;45.60;;;;;;1904123;75;21210;-59
2022/04/16 01:52:38;;;;;;;5.53;2.65;;;20.50;45.50;;;;;;1903977;75;21221;-62
2022/04/16 01:55:07;;;;;;;4.47;2.67;;;20.50;45.50;;;;;;1904245;75;21115;-58
2022/04/16 01:57:34;;;;;;;3.22;2.67;;;20.50;45.40;;;;;;1886591;74;21068;-58
2022/04/16 02:00:02;;;;;;;3.37;2.70;;;20.50;45.70;;;;;;1870992;76;21217;-59
2022/04/16 02:02:29;;;;;;;4.25;2.90;;;20.50;45.70;;;;;;1869355;77;21228;-61
2022/04/16 02:04:56;;;;;;;4.08;2.90;;;20.50;45.50;;;;;;1869471;77;21099;-58
2022/04/16 02:07:24;;;;;;;5.90;3.00;;;20.50;45.50;;;;;;1869271;77;21119;-58
2022/04/16 02:09:51;;;;;;;3.60;2.87;;;20.50;45.40;;;;;;1869203;77;21083;-60
2022/04/16 02:12:18;;;;;;;4.22;2.98;;;20.50;45.40;;;;;;1869248;77;21212;-61
2022/04/16 02:14:46;;;;;;;4.05;3.20;;;20.50;45.50;;;;;;1869465;77;21111;-59
2022/04/16 02:17:13;;;;;;;4.00;2.65;;;20.50;45.50;;;;;;1869522;77;21558;-62
2022/04/16 02:19:41;;;;;;;3.25;2.90;;;20.50;45.40;;;;;;1869341;77;21581;-60
2022/04/16 02:22:08;;;;;;;8.30;3.10;;;20.50;45.60;;;;;;1868928;77;21228;-59
2022/04/16 02:24:36;;;;;;;8.55;3.37;;;20.40;46.00;;;;;;1869011;77;21186;-58
2022/04/16 02:27:04;;;;;;;3.58;2.98;;;20.40;45.30;;;;;;1869514;77;21115;-62
2022/04/16 02:29:31;;;;;;;3.77;2.75;;;20.40;45.60;;;;;;1869349;77;21099;-64
2022/04/16 02:31:58;;;;;;;3.30;3.00;;;20.40;45.40;;;;;;1869208;77;21154;-58
2022/04/16 02:34:26;;;;;;;5.75;2.55;;;20.40;45.40;;;;;;1869041;77;21123;-59
2022/04/16 02:36:53;;;;;;;3.70;3.30;;;20.40;45.80;;;;;;1885786;74;21091;-61
2022/04/16 02:39:20;;;;;;;5.33;2.72;;;20.40;45.50;;;;;;1901338;75;21142;-66
2022/04/16 02:41:48;;;;;;;5.45;3.02;;;20.40;45.50;;;;;;1901179;75;21197;-60
2022/04/16 02:47:08;;;;;;;4.72;3.00;;;20.40;45.50;;;;;;1901449;75;21089;-64
2022/04/16 02:49:37;;;;;;;3.25;2.95;;;20.40;45.50;;;;;;1901415;75;21626;-58
2022/04/16 02:52:05;;;;;;;7.42;3.52;;;20.40;45.50;;;;;;1901477;75;21092;-58
2022/04/16 02:54:32;;;;;;;4.85;3.00;;;20.40;45.60;;;;;;1901417;75;21131;-59
2022/04/16 02:57:00;;;;;;;2.95;2.70;;;20.40;45.50;;;;;;1900645;75;21123;-62
2022/04/16 02:59:27;;;;;;;4.40;3.85;;;20.40;45.60;;;;;;1900706;75;21941;-58
2022/04/16 03:01:55;;;;;;;3.47;3.12;;;20.40;45.40;;;;;;1900987;75;21217;-59
2022/04/16 03:04:22;;;;;;;3.20;2.87;;;20.40;45.40;;;;;;1901312;75;21114;-59
2022/04/16 03:06:50;;;;;;;5.85;3.65;;;20.40;45.30;;;;;;1901227;75;21330;-58
2022/04/16 03:09:18;;;;;;;6.08;3.55;;;20.40;45.20;;;;;;1901150;75;21162;-58
2022/04/16 03:11:45;;;;;;;3.72;3.25;;;20.40;45.40;;;;;;1901309;75;21119;-58
2022/04/16 03:19:47;;;;;;;5.05;3.30;;;20.40;45.20;;;;;;1901269;75;21685;-57
2022/04/16 03:22:14;;;;;;;4.40;3.27;;;20.40;45.30;;;;;;1901562;75;21087;-58
2022/04/16 03:24:42;;;;;;;5.47;3.80;;;20.40;46.00;;;;;;1901659;75;21104;-57
2022/04/16 03:27:09;;;;;;;4.80;3.33;;;20.40;45.50;;;;;;1901350;75;21209;-59
2022/04/16 03:29:37;;;;;;;3.45;3.08;;;20.40;45.30;;;;;;1898997;74;21171;-60
2022/04/16 03:32:05;;;;;;;4.67;3.45;;;20.40;45.30;;;;;;1897399;75;21182;-59
2022/04/16 03:34:32;;;;;;;5.05;4.10;;;20.40;45.30;;;;;;1901360;75;21108;-59
2022/04/16 03:37:00;;;;;;;3.62;3.22;;;20.40;45.40;;;;;;1901557;75;21146;-58
2022/04/16 03:39:27;;;;;;;5.20;3.85;;;20.40;45.30;;;;;;1901657;75;22116;-58
2022/04/16 03:41:54;;;;;;;4.72;3.60;;;20.40;45.50;;;;;;1901441;75;21092;-58
2022/04/16 03:44:22;;;;;;;4.85;3.40;;;20.40;45.70;;;;;;1901851;75;21095;-61
2022/04/16 03:46:49;;;;;;;4.30;3.27;;;20.40;45.70;;;;;;1901566;75;21111;-60
2022/04/16 03:49:16;;;;;;;4.05;3.45;;;20.40;45.60;;;;;;1901530;75;21173;-60
2022/04/16 03:51:44;;;;;;;3.98;3.27;;;20.40;45.30;;;;;;1901708;75;21079;-58
2022/04/16 04:00:03;;;;;;;4.05;3.65;;;20.40;45.60;;;;;;1901153;75;21244;-60
2022/04/16 04:02:33;;;;;;;3.90;3.33;;;20.40;45.90;;;;;;1901077;75;21123;-63
2022/04/16 04:05:00;;;;;;;4.35;3.83;;;20.40;45.60;;;;;;1901389;75;21147;-60
2022/04/16 04:07:27;;;;;;;3.58;3.27;;;20.40;45.60;;;;;;1901585;75;21127;-59
2022/04/16 04:09:55;;;;;;;5.05;4.15;;;20.40;45.60;;;;;;1901015;75;21341;-68
2022/04/16 04:12:22;;;;;;;4.35;3.72;;;20.40;45.40;;;;;;1901581;75;21178;-58
2022/04/16 04:14:49;;;;;;;4.80;4.28;;;20.40;45.60;;;;;;1901508;75;21651;-61
2022/04/16 04:17:17;;;;;;;5.15;3.80;;;20.30;45.40;;;;;;1901648;75;21107;-58
2022/04/16 04:19:45;;;;;;;3.95;3.47;;;20.30;45.50;;;;;;1901523;75;21547;-62
2022/04/16 04:22:14;;;;;;;4.72;3.72;;;20.40;45.50;;;;;;1901580;75;21224;-59
2022/04/16 04:24:42;;;;;;;5.45;3.95;;;20.30;45.40;;;;;;1895048;74;21165;-58
2022/04/16 04:27:09;;;;;;;4.90;3.52;;;20.30;45.40;;;;;;1901604;75;21122;-68
2022/04/16 04:29:37;;;;;;;3.98;3.37;;;20.40;45.40;;;;;;1901576;75;21487;-66
2022/04/16 04:32:06;;;;;;;4.97;4.47;;;20.30;45.00;;;;;;1901607;75;22332;-62
2022/04/16 04:34:33;;;;;;;4.75;4.03;;;20.40;45.30;;;;;;1901707;75;21649;-64
2022/04/16 04:37:00;;;;;;;5.25;4.45;;;20.40;45.10;;;;;;1901297;75;21118;-64
2022/04/16 04:39:29;;;;;;;5.42;4.15;;;20.30;45.10;;;;;;1901052;75;21454;-59
2022/04/16 04:41:56;;;;;;;4.33;3.65;;;20.30;45.50;;;;;;1901289;75;21128;-59
2022/04/16 04:44:23;;;;;;;4.03;3.62;;;20.30;45.30;;;;;;1901233;75;21661;-59
2022/04/16 04:46:51;;;;;;;5.78;4.53;;;20.40;45.40;;;;;;1900334;75;21066;-59
2022/04/16 04:49:18;;;;;;;4.92;4.40;;;20.30;45.40;;;;;;1901513;75;21517;-59
2022/04/16 04:51:45;;;;;;;5.00;4.17;;;20.40;45.30;;;;;;1895597;74;21091;-58
2022/04/16 04:54:13;;;;;;;5.20;4.17;;;20.30;45.40;;;;;;1901001;75;21552;-57
2022/04/16 04:56:40;;;;;;;5.42;4.15;;;20.40;45.30;;;;;;1901782;75;21143;-59
2022/04/16 04:59:07;;;;;;;4.47;4.08;;;20.40;45.70;;;;;;1901714;75;21546;-57
2022/04/16 05:01:35;;;;;;;5.75;4.22;;;20.40;45.60;;;;;;1901863;75;21150;-57
2022/04/16 05:04:02;;;;;;;5.50;4.70;;;20.30;45.30;;;;;;1904347;75;21620;-57
2022/04/16 05:06:29;;;;;;;4.95;4.25;;;20.30;45.30;;;;;;1904364;75;21095;-58
2022/04/16 05:08:57;;;;;;;5.28;4.30;;;20.30;45.30;;;;;;1903354;75;21119;-58
2022/04/16 05:11:24;;;;;;;5.47;4.58;;;20.30;45.40;;;;;;1903979;75;21185;-58
2022/04/16 05:13:51;;;;;;;4.70;4.20;;;20.40;46.10;;;;;;1904397;75;21124;-58
2022/04/16 05:16:19;;;;;;;5.03;4.20;;;20.30;45.20;;;;;;1902989;75;21185;-58
2022/04/16 05:18:46;;;;;;;5.83;4.62;;;20.30;45.30;;;;;;1904311;75;21166;-59
2022/04/16 05:21:13;;;;;;;5.03;4.35;;;20.30;45.20;;;;;;1896590;74;21200;-60
2022/04/16 05:23:41;;;;;;;6.35;4.60;;;20.30;45.90;;;;;;1903277;75;21124;-58
2022/04/16 05:26:11;;;;;;;5.80;4.33;;;20.30;45.20;;;;;;1903966;75;21103;-58
2022/04/16 05:28:38;;;;;;;5.00;4.30;;;20.40;44.90;;;;;;1904629;75;21363;-58
2022/04/16 05:31:06;;;;;;;5.37;4.53;;;20.40;45.00;;;;;;1903687;75;21800;-58
2022/04/16 05:36:19;;;;;;;4.87;4.35;;;20.30;45.20;;;;;;1904356;75;21108;-58
2022/04/16 05:38:46;;;;;;;6.35;4.67;;;20.30;45.20;;;;;;1904777;75;21607;-58
2022/04/16 05:41:14;;;;;;;5.33;4.58;;;20.30;45.20;;;;;;1904563;75;21085;-58
2022/04/16 05:43:42;;;;;;;5.90;4.30;;;20.30;45.40;;;;;;1904043;75;21158;-68
2022/04/16 05:46:09;;;;;;;5.60;4.70;;;20.30;45.40;;;;;;1903850;75;21204;-58
2022/04/16 05:48:37;;;;;;;6.15;4.97;;;20.30;45.50;;;;;;1903745;75;21084;-60
2022/04/16 05:51:04;;;;;;;6.42;5.15;;;20.20;45.30;;;;;;1903856;75;21361;-58
2022/04/16 05:53:32;;;;;;;7.67;5.97;;;20.20;45.20;;;;;;1904215;75;21123;-57
2022/04/16 05:55:59;;;;;;;7.85;4.78;;;20.20;45.00;;;;;;1904184;75;21131;-58
2022/04/16 05:58:27;;;;;;;5.75;4.67;;;20.20;45.10;;;;;;1903845;75;21048;-57
2022/04/16 06:00:54;;;;;;;6.00;4.95;;;20.20;44.90;;;;;;1904141;75;21377;-58
2022/04/16 06:03:22;;;;;;;5.55;5.00;;;20.20;44.80;;;;;;1905839;74;21438;-64
2022/04/16 06:05:50;;;;;;;7.65;5.33;;;20.20;44.70;;;;;;1906856;75;21641;-58
2022/04/16 06:08:18;;;;;;;8.55;5.20;;;20.20;44.70;;;;;;1907124;74;21131;-58
2022/04/16 06:10:45;;;;;;;9.40;6.33;;;20.20;44.60;;;;;;1907433;74;21119;-58
2022/04/16 06:13:13;;;;;;;7.40;5.45;;;20.20;44.50;;;;;;1906876;75;21143;-63
2022/04/16 06:15:43;;;;;;;7.20;5.60;;;20.20;44.40;;;;;;1900525;74;21142;-59
2022/04/16 06:18:11;;;;;;;8.38;6.42;;;20.10;44.30;;;;;;1906632;75;21092;-62
2022/04/16 06:20:38;;;;;;;8.23;5.90;;;20.10;44.20;;;;;;1906478;74;21131;-63
2022/04/16 06:23:06;;;;;;;7.78;5.65;;;20.10;44.20;;;;;;1906381;74;21220;-67
2022/04/16 06:25:33;;;;;;;8.83;6.87;;;20.10;44.20;;;;;;1906835;75;21173;-59
2022/04/16 06:28:01;;;;;;;7.47;5.85;;;20.10;44.20;;;;;;1906871;74;21574;-59
2022/04/16 06:30:29;;;;;;;9.28;6.17;;;20.10;44.10;;;;;;1907124;74;21422;-62
2022/04/16 06:32:56;;;;;;;9.33;7.17;;;20.10;44.00;;;;;;1906781;74;21119;-66
2022/04/16 06:35:24;;;;;;;8.68;6.53;;;20.10;43.90;;;;;;1907219;74;21123;-58
2022/04/16 06:37:51;;;;;;;8.58;7.17;;;20.10;43.90;;;;;;1906395;74;21111;-67
2022/04/16 06:40:18;;;;;;;9.75;7.10;;;20.10;43.90;;;;;;1907107;74;21068;-57
2022/04/16 06:42:46;;;;;;;9.38;6.85;;;20.10;43.80;;;;;;1907385;74;21127;-59
2022/04/16 06:45:13;;;;;;;8.80;6.40;;;20.10;43.70;;;;;;1907315;74;21121;-65
2022/04/16 06:47:41;;;;;;;8.40;7.00;;;20.10;43.60;;;;;;1907178;74;21554;-62
2022/04/16 06:50:08;;;;;;;10.55;7.33;;;20.10;43.60;;;;;;1907072;74;21171;-63
2022/04/16 06:52:36;;;;;;;9.05;6.97;;;20.10;43.60;;;;;;1907110;74;21134;-62
2022/04/16 06:55:05;;;;;;;9.45;6.47;;;20.10;43.40;;;;;;1907229;74;21122;-62
2022/04/16 06:57:32;;;;;;;11.30;7.20;;;20.10;43.30;;;;;;1907161;74;21107;-60
2022/04/16 06:59:59;;;;;;;8.90;6.70;;;20.10;43.00;;;;;;1906474;75;21122;-59
2022/04/16 07:02:27;;;;;;;8.75;6.65;;;20.00;42.80;;;;;;1903684;74;21131;-58
2022/04/16 07:04:54;;;;;;;10.00;6.97;;;20.00;42.80;;;;;;1862986;77;21151;-62
2022/04/16 07:07:22;;;;;;;7.65;6.50;;;20.00;42.80;;;;;;1862840;77;21194;-58
2022/04/16 07:09:49;;;;;;;8.90;7.03;;;20.00;42.70;;;;;;1856357;76;21070;-57
2022/04/16 07:12:16;;;;;;;11.50;7.10;;;20.00;42.50;;;;;;1862529;77;21136;-57
2022/04/16 07:14:43;;;;;;;7.65;5.75;;;20.00;42.50;;;;;;1862850;77;21081;-58
2022/04/16 07:17:11;;;;;;;9.03;7.00;;;20.00;42.40;;;;;;1862961;77;21762;-58
2022/04/16 07:19:38;;;;;;;9.73;6.80;;;20.00;42.20;;;;;;1862411;77;21700;-61
2022/04/16 07:22:06;;;;;;;8.63;6.78;;;20.00;42.20;;;;;;1862756;77;21206;-57
2022/04/16 07:24:37;;;;;;;9.18;7.25;;;20.00;42.20;;;;;;1862924;77;21097;-57
2022/04/16 07:27:02;;;;;;;9.20;6.75;;;20.00;42.20;;;;;;1860418;76;21081;-57
2022/04/16 07:29:30;;;;;;;8.05;5.83;;;20.00;42.20;;;;;;1859678;77;21085;-58
2022/04/16 07:31:58;;;;;;;7.40;6.33;;;20.00;42.30;;;;;;1863100;76;21113;-58
2022/04/16 07:34:27;;;;;;;8.43;6.12;;;20.00;42.10;;;;;;1862683;77;21547;-58
2022/04/16 07:36:54;;;;;;;7.53;6.35;;;20.00;42.00;;;;;;1862957;77;21090;-58
2022/04/16 07:39:22;;;;;;;8.35;6.35;;;19.90;41.90;;;;;;1862794;77;21112;-60
2022/04/16 07:41:51;;;;;;;11.18;7.80;;;19.90;41.80;;;;;;1862601;77;22214;-61
2022/04/16 07:44:18;;;;;;;7.67;6.10;;;19.90;41.80;;;;;;1856849;76;21164;-59
2022/04/16 07:46:46;;;;;;;9.73;7.20;;;19.90;41.70;;;;;;1831237;78;21112;-59
2022/04/16 07:49:13;;;;;;;8.23;6.10;;;19.90;41.70;;;;;;1831254;78;21555;-67
2022/04/16 07:51:42;;;;;;;8.03;6.03;;;19.90;41.60;;;;;;1831245;78;21093;-60
2022/04/16 07:54:10;;;;;;;11.97;7.10;;;19.90;41.70;;;;;;1831282;78;21556;-59
2022/04/16 07:56:37;;;;;;;7.37;5.60;;;19.90;41.50;;;;;;1831551;78;21096;-61
2022/04/16 07:59:04;;;;;;;8.30;6.42;;;19.90;41.50;;;;;;1831661;78;21581;-57
2022/04/16 08:01:32;;;;;;;8.68;6.53;;;20.00;42.00;;;;;;1837513;76;21136;-63
2022/04/16 08:03:59;;;;;;;7.95;6.12;;;20.00;41.70;;;;;;1862755;75;22223;-62
2022/04/16 08:06:26;;;;;;;10.98;6.67;;;20.00;41.50;;;;;;1863174;77;21124;-67
2022/04/16 08:09:00;;;;;;;8.25;6.15;;;19.90;42.00;;;;;;1862470;77;21089;-61
2022/04/16 08:11:23;;;;;;;7.55;5.78;;;19.90;41.40;;;;;;1861550;77;21101;-66
2022/04/16 08:13:50;;;;;;;14.05;7.37;;;19.90;41.50;;;;;;1862422;77;21686;-63
2022/04/16 08:16:17;;;;;;;10.60;6.60;;;19.90;41.60;;;;;;1862442;76;21108;-58
2022/04/16 08:18:45;;;;;;;10.93;6.55;;;20.00;41.70;;;;;;1862879;77;21552;-62
2022/04/16 08:21:12;;;;;;;9.43;5.40;;;20.00;41.60;;;;;;1863068;77;21129;-62
2022/04/16 08:23:44;;;;;;;7.97;5.45;;;20.10;41.90;;;;;;1862609;77;21646;-60
2022/04/16 08:26:08;;;;;;;9.48;5.40;;;20.10;41.40;;;;;;1857408;77;21214;-63
2022/04/16 08:28:35;;;;;;;7.67;5.97;;;20.10;41.30;;;;;;1835949;77;21140;-63
2022/04/16 08:31:03;;;;;;;9.98;6.25;;;20.00;41.20;;;;;;1829505;78;21093;-62
2022/04/16 08:33:30;;;;;;;8.45;6.17;;;20.00;41.30;;;;;;1830299;78;21085;-63
2022/04/16 08:35:58;;;;;;;8.35;6.40;;;20.00;41.20;;;;;;1830433;78;21081;-64
2022/04/16 08:38:25;;;;;;;9.13;5.55;;;20.00;41.20;;;;;;1830293;78;21639;-65
2022/04/16 08:40:53;;;;;;;10.32;5.80;;;20.00;41.10;;;;;;1843136;76;21041;-68
2022/04/16 08:43:21;;;;;;;11.18;6.22;;;20.00;41.20;;;;;;1862696;77;21062;-65
2022/04/16 08:45:50;;;;;;;8.08;6.17;;;20.00;41.10;;;;;;1862207;77;21101;-57
2022/04/16 08:48:18;;;;;;;8.95;6.25;;;20.10;41.10;;;;;;1862102;77;21156;-58
2022/04/16 08:50:45;;;;;;;7.58;5.70;;;20.10;41.40;;;;;;1861325;77;21364;-61
2022/04/16 08:53:13;;;;;;;9.88;5.80;;;20.10;40.90;;;;;;1861361;77;21140;-57
2022/04/16 08:55:40;;;;;;;7.05;5.45;;;20.10;41.10;;;;;;1861274;77;21112;-59
2022/04/16 08:58:07;;;;;;;6.83;5.50;;;20.10;41.40;;;;;;1863007;76;21192;-62
2022/04/16 09:00:35;;;;;;;8.13;5.80;;;20.20;41.60;;;;;;1861836;77;21100;-61
2022/04/16 09:03:04;;;;;;;6.47;5.42;;;20.20;41.60;;;;;;1862678;76;21129;-62
2022/04/16 09:05:31;;;;;;;6.17;5.03;;;20.30;41.70;;;;;;1863229;73;21191;-58
2022/04/16 09:07:59;;;;;;;10.80;6.10;;;20.40;41.70;;;;;;1863625;76;21145;-67
2022/04/16 09:10:28;;;;;;;9.00;5.12;;;20.40;41.80;;;;;;1862669;77;21166;-66
2022/04/16 09:12:58;;;;;;;9.43;5.50;;;20.30;40.40;;;;;;1862184;77;21132;-64
2022/04/16 09:15:26;;;;;;;12.28;5.65;;;20.20;39.40;;;;;;1861339;77;21179;-65
2022/04/16 09:18:00;;;;;;;11.12;5.33;;;19.70;35.50;;;;;;1862524;77;21089;-58
2022/04/16 09:20:31;;;;;;;12.07;5.15;;;19.10;34.30;;;;;;1862078;77;21136;-59
2022/04/16 09:22:59;;;;;;;5.30;4.42;;;18.70;34.20;;;;;;1862796;77;21591;-64
2022/04/16 09:25:31;;;;;;;16.40;7.87;;;18.50;34.40;;;;;;1862828;77;21098;-62
2022/04/16 09:27:58;;;;;;;7.70;4.33;;;18.30;34.10;;;;;;1862942;76;21186;-63
2022/04/16 09:30:31;;;;;;;8.45;4.87;;;18.20;34.20;;;;;;1862627;77;21132;-59
2022/04/16 09:33:00;;;;;;;9.10;5.08;;;18.10;34.10;;;;;;1862625;77;21398;-58
2022/04/16 09:35:37;;;;;;;60.75;24.72;;;18.10;35.20;;;;;;1856427;76;21045;-67
2022/04/16 09:38:12;;;;;;;15.75;6.83;;;18.30;35.00;;;;;;1863263;76;21116;-58
2022/04/16 09:40:35;;;;;;;13.50;5.25;;;18.70;35.40;;;;;;1862000;77;21108;-63
2022/04/16 09:43:04;;;;;;;10.90;4.50;;;19.10;35.50;;;;;;1862644;76;22281;-60
2022/04/16 09:45:32;;;;;;;11.93;4.90;;;19.30;35.40;;;;;;1862587;77;21191;-60
2022/04/16 09:47:59;;;;;;;11.33;4.28;;;19.50;35.80;;;;;;1862617;77;21116;-58
2022/04/16 09:50:32;;;;;;;12.63;4.75;;;19.60;35.60;;;;;;1861157;77;21337;-58
2022/04/16 09:53:02;;;;;;;8.78;3.62;;;19.60;35.70;;;;;;1862770;77;21186;-60
2022/04/16 09:55:29;;;;;;;14.53;4.70;;;19.60;35.90;;;;;;1862939;77;21174;-65
2022/04/16 09:58:04;;;;;;;10.55;4.33;;;19.70;35.80;;;;;;1862981;77;21109;-59
2022/04/16 10:00:36;;;;;;;11.33;3.67;;;19.80;35.50;;;;;;1862883;77;21146;-58
2022/04/16 10:03:05;;;;;;;10.23;3.25;;;19.80;34.80;;;;;;1862775;77;21147;-68
2022/04/16 10:05:32;;;;;;;18.55;3.98;;;19.70;34.70;;;;;;1892756;75;21210;-58
2022/04/16 10:07:59;;;;;;;13.53;3.37;;;19.70;35.20;;;;;;1907452;75;22076;-59
2022/04/16 10:13:08;;;;;;;7.03;3.20;;;19.70;36.00;;;;;;1906998;75;21097;-60
2022/04/16 10:16:02;;;;;;;8.65;3.25;;;19.70;35.30;;;;;;1907757;74;21566;-59
2022/04/16 10:18:30;;;;;;;7.90;3.60;;;19.80;35.20;;;;;;1907364;74;21099;-58
2022/04/16 10:20:59;;;;;;;6.85;2.92;;;19.80;35.30;;;;;;1884135;75;21401;-57
2022/04/16 10:23:34;;;;;;;9.58;3.45;;;19.80;35.30;;;;;;1907716;74;21220;-58
2022/04/16 10:26:06;;;;;;;9.50;2.90;;;19.90;35.80;;;;;;1906776;74;21091;-61
2022/04/16 10:28:44;;;;;;;3.35;2.75;;;19.90;35.10;;;;;;1902233;73;22144;-66
2022/04/16 10:31:28;;;;;;;6.70;2.60;;;19.90;35.20;;;;;;1905604;74;21463;-64
2022/04/16 10:34:01;;;;;;;6.08;2.83;;;19.90;34.80;;;;;;1906994;75;21196;-59
2022/04/16 10:36:32;;;;;;;3.12;2.08;;;19.90;34.70;;;;;;1906331;75;21534;-60
2022/04/16 10:39:00;;;;;;;9.55;2.90;;;19.90;34.70;;;;;;1907085;75;21072;-63
2022/04/16 10:41:28;;;;;;;4.25;2.22;;;19.90;35.00;;;;;;1904583;75;21181;-63
2022/04/16 10:44:02;;;;;;;6.60;3.08;;;19.90;35.10;;;;;;1906751;75;21170;-71
2022/04/16 10:46:46;;;;;;;9.00;2.47;;;19.90;34.90;;;;;;1907160;74;21180;-58
2022/04/16 10:49:14;;;;;;;6.75;2.47;;;19.90;34.70;;;;;;1902244;75;21063;-64
2022/04/16 10:51:41;;;;;;;5.40;2.45;;;19.90;34.70;;;;;;1907379;74;21416;-57
2022/04/16 10:54:13;;;;;;;5.85;2.45;;;19.90;34.40;;;;;;1906957;75;21209;-60
2022/04/16 10:56:42;;;;;;;4.30;2.30;;;19.90;34.40;;;;;;1906826;74;21184;-58
2022/04/16 10:59:11;;;;;;;3.80;1.92;;;20.00;35.10;;;;;;1907574;74;21090;-57
2022/04/16 11:01:38;;;;;;;5.20;2.25;;;20.00;35.10;;;;;;1907429;74;21122;-58
2022/04/16 11:04:15;;;;;;;5.30;2.25;;;20.00;34.70;;;;;;1907100;75;21196;-59
2022/04/16 11:06:48;;;;;;;5.92;2.45;;;20.00;34.80;;;;;;1900076;74;21122;-61
2022/04/16 11:09:19;;;;;;;5.42;2.17;;;20.00;34.20;;;;;;1907514;74;21115;-63
2022/04/16 11:11:47;;;;;;;;;;;20.00;34.70;;;;;;1910695;74;21127;-61
2022/04/16 11:14:14;;;;;;;3.60;2.50;;;20.00;34.30;;;;;;1906891;75;20177;-67
2022/04/16 11:16:45;;;;;;;4.78;2.35;;;20.00;34.50;;;;;;1907460;74;21149;-57
2022/04/16 11:19:14;;;;;;;2.47;2.25;;;20.00;35.40;;;;;;1907596;74;21173;-67
2022/04/16 11:21:41;;;;;;;4.03;2.40;;;20.00;34.90;;;;;;1907682;74;21582;-67
2022/04/16 11:24:08;;;;;;;3.27;2.60;;;20.10;35.80;;;;;;1907386;74;21212;-64
2022/04/16 11:34:57;;;;;;;2.98;1.98;;;20.10;35.80;;;;;;1906730;75;21233;-63
2022/04/16 11:37:24;;;;;;;;;;;20.10;35.80;;;;;;1910038;74;21123;-59
2022/04/16 11:40:09;;;;;;;3.17;1.70;;;20.10;34.70;;;;;;1906884;75;20181;-58
2022/04/16 11:42:36;;;;;;;4.42;1.80;;;20.10;35.50;;;;;;1907253;74;21127;-60
2022/04/16 11:45:06;;;;;;;5.12;2.17;;;20.10;35.80;;;;;;1907157;75;21636;-61
2022/04/16 11:47:36;;;;;;;2.62;1.70;;;20.10;35.40;;;;;;1907643;74;21149;-60
2022/04/16 11:50:05;;;;;;;2.70;2.05;;;20.10;35.70;;;;;;1907499;74;21025;-60
2022/04/16 11:52:33;;;;;;;5.65;1.95;;;20.20;35.70;;;;;;1907508;74;21168;-59
2022/04/16 11:55:10;;;;;;;2.75;1.77;;;20.20;35.10;;;;;;1908042;74;21602;-58
2022/04/16 11:57:37;;;;;;;3.15;2.17;;;20.20;34.90;;;;;;1907438;74;21111;-59
2022/04/16 12:00:10;;;;;;;2.77;2.02;;;20.10;35.60;;;;;;1900936;73;21126;-61
2022/04/16 12:02:39;;;;;;;3.20;1.65;;;20.20;35.50;;;;;;1906977;74;21850;-60
2022/04/16 12:05:18;;;;;;;2.35;1.80;;;20.20;35.50;;;;;;1907037;74;21088;-64
2022/04/16 12:07:48;;;;;;;3.17;2.02;;;20.20;35.60;;;;;;1900352;75;21095;-59
2022/04/16 12:10:17;;;;;;;3.42;1.85;;;20.20;35.70;;;;;;1901686;75;21378;-59
2022/04/16 12:12:48;;;;;;;5.40;2.00;;;20.20;35.90;;;;;;1901183;75;21131;-59
2022/04/16 12:15:27;;;;;;;3.55;2.00;;;20.20;35.30;;;;;;1901281;75;21111;-67
2022/04/16 12:17:56;;;;;;;2.55;1.65;;;20.20;34.60;;;;;;1900384;75;21112;-60
2022/04/16 12:20:24;;;;;;;3.05;1.90;;;20.20;34.60;;;;;;1901237;75;21123;-58
2022/04/16 12:22:54;;;;;;;2.92;1.50;;;20.20;34.90;;;;;;1901525;75;21402;-67
2022/04/16 12:25:23;;;;;;;21.20;2.00;;;20.20;34.70;;;;;;1901267;75;21151;-58
2022/04/16 12:27:52;;;;;;;3.37;1.60;;;20.20;34.70;;;;;;1901535;75;21169;-65
2022/04/16 12:30:25;;;;;;;3.62;1.87;;;20.20;34.40;;;;;;1900907;75;21165;-68
2022/04/16 12:32:59;;;;;;;1.90;1.57;;;20.20;34.30;;;;;;1900816;75;21174;-71
2022/04/16 12:35:28;;;;;;;2.15;1.40;;;20.20;34.10;;;;;;1901944;75;21123;-66
2022/04/16 12:37:56;;;;;;;4.92;1.80;;;20.20;34.20;;;;;;1901035;75;21169;-64
2022/04/16 12:40:24;;;;;;;3.12;1.70;;;20.20;34.00;;;;;;1901791;75;21644;-60
2022/04/16 12:42:52;;;;;;;3.15;1.80;;;20.20;34.90;;;;;;1901813;75;21586;-65
2022/04/16 12:45:20;;;;;;;4.33;1.95;;;20.20;34.20;;;;;;1901149;75;21131;-61
2022/04/16 12:47:48;;;;;;;3.42;1.47;;;20.20;34.30;;;;;;1901014;75;21675;-61
2022/04/16 12:50:15;;;;;;;3.55;2.02;;;20.20;34.10;;;;;;1901315;75;21135;-67
2022/04/16 12:52:43;;;;;;;2.60;1.72;;;20.20;33.90;;;;;;1901305;75;21127;-64
2022/04/16 12:55:11;;;;;;;2.75;1.70;;;20.20;33.40;;;;;;1883812;74;21088;-60
2022/04/16 12:57:38;;;;;;;2.67;1.82;;;20.20;33.90;;;;;;1869698;77;21119;-64
2022/04/16 13:00:08;;;;;;;2.00;1.47;;;20.20;34.20;;;;;;1869579;77;21119;-60
2022/04/16 13:02:37;;;;;;;3.12;1.57;;;20.20;34.00;;;;;;1869342;77;21847;-67
2022/04/16 13:05:06;;;;;;;2.95;1.45;;;20.20;34.20;;;;;;1869429;77;21126;-67
2022/04/16 13:07:33;;;;;;;5.50;1.55;;;20.20;33.90;;;;;;1869291;76;21129;-63
2022/04/16 13:10:00;;;;;;;4.80;1.95;;;20.20;33.70;;;;;;1869230;77;21079;-70
2022/04/16 13:12:29;;;;;;;3.42;1.98;;;20.20;33.80;;;;;;1869029;77;21141;-65
2022/04/16 13:14:56;;;;;;;2.55;1.52;;;20.20;34.10;;;;;;1847373;77;21220;-60
2022/04/16 13:17:23;;;;;;;2.27;1.92;;;20.20;34.10;;;;;;1869409;77;21154;-60
2022/04/16 13:19:51;;;;;;;2.90;1.92;;;20.20;34.10;;;;;;1869707;77;21110;-68